Time;durP1;ratioP1;P1;durP2;ratioP2;P2;SDS_P1;SDS_P2;PMS_P1;PMS_P2;Temp;Humidity;BMP_temperature;BMP_pressure;BME280_temperature;BME280_humidity;BME280_pressure;Samples;Min_cycle;Max_cycle;Signal;HPM_P1;HPM_P2
2023/06/09 00:03:31;;;;;;;6.85;2.05;;;29.30;51.60;;;;;;10466174;28;20052;-25
2023/06/09 00:08:33;;;;;;;5.30;2.17;;;29.30;51.50;;;;;;10455562;28;20049;-25
2023/06/09 00:13:36;;;;;;;6.93;2.00;;;29.20;51.50;;;;;;10455257;28;20604;-26
2023/06/09 00:18:40;;;;;;;4.03;1.70;;;29.20;51.60;;;;;;10455170;28;20148;-25
2023/06/09 00:23:44;;;;;;;3.67;1.83;;;29.10;51.60;;;;;;10450851;28;20498;-25
2023/06/09 00:28:47;;;;;;;4.28;1.70;;;29.00;51.60;;;;;;10458252;28;20053;-25
2023/06/09 00:33:49;;;;;;;6.28;2.00;;;29.00;51.60;;;;;;10450856;28;20185;-26
2023/06/09 00:38:50;;;;;;;5.15;1.88;;;29.00;51.70;;;;;;10453870;28;20148;-25
2023/06/09 00:43:55;;;;;;;5.50;2.33;;;29.00;51.70;;;;;;10454224;28;20055;-25
2023/06/09 00:48:57;;;;;;;3.30;1.67;;;28.80;51.80;;;;;;10459862;28;20048;-26
2023/06/09 00:53:59;;;;;;;3.58;1.90;;;28.80;51.70;;;;;;10456636;28;20096;-27
2023/06/09 00:59:02;;;;;;;4.30;1.70;;;28.80;51.70;;;;;;10455681;28;20139;-26
2023/06/09 01:04:04;;;;;;;4.10;1.77;;;28.70;51.70;;;;;;10449795;28;20114;-26
2023/06/09 01:09:15;;;;;;;3.67;1.55;;;28.70;51.70;;;;;;10450801;28;20045;-25
2023/06/09 01:14:23;;;;;;;4.63;1.98;;;28.60;51.70;;;;;;10459628;28;20072;-25
2023/06/09 01:19:32;;;;;;;4.22;1.80;;;28.60;51.80;;;;;;10449065;28;20512;-25
2023/06/09 01:24:46;;;;;;;4.68;2.00;;;28.50;51.80;;;;;;10453802;28;20068;-28
2023/06/09 01:29:51;;;;;;;3.28;1.77;;;28.50;51.80;;;;;;10449605;28;20049;-26
2023/06/09 01:34:54;;;;;;;5.00;2.00;;;28.50;51.80;;;;;;10453095;28;20397;-27
2023/06/09 01:39:56;;;;;;;3.13;1.80;;;28.40;51.70;;;;;;10457378;28;20060;-28
2023/06/09 01:44:59;;;;;;;3.65;1.80;;;28.40;51.90;;;;;;10452267;28;20486;-26
2023/06/09 01:50:05;;;;;;;5.40;1.60;;;28.30;51.80;;;;;;10450751;28;20505;-26
2023/06/09 01:55:13;;;;;;;3.63;2.03;;;28.20;51.70;;;;;;10457643;28;20469;-24
2023/06/09 02:00:18;;;;;;;2.42;1.50;;;28.20;51.80;;;;;;10442804;28;20060;-28
2023/06/09 02:05:21;;;;;;;3.92;1.85;;;28.20;51.80;;;;;;10473062;28;20482;-25
2023/06/09 02:10:23;;;;;;;3.60;1.70;;;28.20;51.90;;;;;;10451320;28;20462;-26
2023/06/09 02:15:27;;;;;;;4.45;1.55;;;28.10;51.80;;;;;;10451839;28;20048;-26
2023/06/09 02:20:29;;;;;;;3.38;1.55;;;28.10;51.80;;;;;;10462818;28;20064;-26
2023/06/09 02:25:32;;;;;;;2.65;1.50;;;28.10;51.80;;;;;;10451600;28;20454;-26
2023/06/09 02:30:35;;;;;;;4.35;2.05;;;28.00;51.90;;;;;;10450885;28;20478;-29
2023/06/09 02:35:37;;;;;;;5.35;1.85;;;28.00;51.90;;;;;;10450433;28;20409;-25
2023/06/09 02:40:43;;;;;;;4.10;2.00;;;28.00;51.90;;;;;;10452870;28;20132;-26
2023/06/09 02:45:46;;;;;;;3.50;1.63;;;27.90;52.50;;;;;;10458865;28;20053;-26
2023/06/09 02:50:48;;;;;;;3.97;1.90;;;27.90;51.90;;;;;;10450661;28;20045;-25
2023/06/09 02:55:50;;;;;;;3.83;1.80;;;27.80;51.90;;;;;;10453328;28;20943;-25
2023/06/09 03:15:29;;;;;;;2.38;1.40;;;27.80;51.20;;;;;;10487142;27;2030221;-26
2023/06/09 03:20:32;;;;;;;3.42;1.52;;;27.60;51.90;;;;;;10526238;28;20040;-25
2023/06/09 03:25:34;;;;;;;3.42;1.60;;;27.60;51.90;;;;;;10525646;28;20412;-27
2023/06/09 03:30:37;;;;;;;2.55;1.80;;;27.50;51.90;;;;;;10526572;28;20128;-26
2023/06/09 03:35:39;;;;;;;5.43;1.73;;;27.50;52.00;;;;;;10504900;28;20139;-27
2023/06/09 03:40:41;;;;;;;3.15;1.70;;;27.50;52.00;;;;;;10501959;28;20079;-26
2023/06/09 03:45:44;;;;;;;2.85;1.33;;;27.50;52.00;;;;;;10500288;28;20404;-26
2023/06/09 03:50:46;;;;;;;5.22;1.30;;;27.40;51.90;;;;;;10510591;28;20060;-26
2023/06/09 03:55:48;;;;;;;3.08;1.20;;;27.40;51.80;;;;;;10510100;28;20049;-26
2023/06/09 04:00:52;;;;;;;3.97;1.70;;;27.40;52.00;;;;;;10515260;28;20059;-25
2023/06/09 04:05:53;;;;;;;2.75;1.35;;;27.30;51.90;;;;;;10506333;28;20901;-28
2023/06/09 04:10:55;;;;;;;3.42;1.58;;;27.30;51.90;;;;;;10515079;28;20509;-26
2023/06/09 04:15:59;;;;;;;2.47;1.50;;;27.30;51.90;;;;;;10515247;28;20090;-26
2023/06/09 04:21:01;;;;;;;3.30;1.75;;;27.30;52.00;;;;;;10515368;28;20045;-25
2023/06/09 04:26:03;;;;;;;3.95;1.40;;;27.20;51.80;;;;;;10506248;28;20127;-26
2023/06/09 04:31:08;;;;;;;2.50;1.58;;;27.20;51.90;;;;;;10484768;28;20135;-26
2023/06/09 04:36:10;;;;;;;4.65;2.20;;;27.30;51.80;;;;;;10473943;28;20052;-27
2023/06/09 04:41:12;;;;;;;3.72;1.60;;;27.20;51.70;;;;;;10485229;28;20513;-25
2023/06/09 04:46:16;;;;;;;5.95;1.80;;;27.30;51.60;;;;;;10502523;28;20447;-26
2023/06/09 04:51:19;;;;;;;4.57;2.17;;;27.30;51.50;;;;;;10491725;28;20044;-26
2023/06/09 04:56:20;;;;;;;5.25;1.85;;;27.30;51.40;;;;;;10496888;28;20051;-25
2023/06/09 05:01:24;;;;;;;6.80;1.88;;;27.30;51.30;;;;;;10488308;28;20080;-26
2023/06/09 05:06:25;;;;;;;8.27;3.50;;;27.30;51.10;;;;;;10491102;28;20139;-26
2023/06/09 05:11:27;;;;;;;7.22;2.08;;;27.30;50.80;;;;;;10465396;28;20113;-26
2023/06/09 05:16:31;;;;;;;5.90;2.10;;;27.30;50.70;;;;;;10481814;28;20149;-26
2023/06/09 05:21:32;;;;;;;4.90;2.50;;;27.30;50.50;;;;;;10487737;28;20656;-27
2023/06/09 05:26:34;;;;;;;5.45;1.83;;;27.30;50.30;;;;;;10492044;28;20077;-27
2023/06/09 05:31:37;;;;;;;4.47;2.33;;;27.30;50.20;;;;;;10489858;28;20055;-26
2023/06/09 05:36:39;;;;;;;7.22;2.60;;;27.30;50.10;;;;;;10486948;28;20052;-30
2023/06/09 05:41:41;;;;;;;5.43;2.30;;;27.20;50.00;;;;;;10489654;28;20068;-26
2023/06/09 05:46:45;;;;;;;5.20;2.28;;;27.30;50.00;;;;;;10493241;28;20048;-27
2023/06/09 05:51:46;;;;;;;4.13;1.98;;;27.30;49.80;;;;;;10487862;28;20060;-26
2023/06/09 05:56:49;;;;;;;5.65;2.30;;;27.30;49.80;;;;;;10490639;28;20075;-26
2023/06/09 06:01:52;;;;;;;5.88;2.10;;;27.30;49.80;;;;;;10482196;28;20077;-26
2023/06/09 06:06:54;;;;;;;5.43;2.13;;;27.30;49.70;;;;;;10475539;28;20080;-26
2023/06/09 06:11:56;;;;;;;5.60;2.10;;;27.30;50.30;;;;;;10486416;28;20048;-24
2023/06/09 06:16:59;;;;;;;5.05;2.53;;;27.30;49.60;;;;;;10485635;28;20049;-25
2023/06/09 06:22:01;;;;;;;2.83;1.98;;;27.30;49.50;;;;;;10488477;28;20117;-27
2023/06/09 06:27:03;;;;;;;10.48;3.35;;;27.30;49.60;;;;;;10467069;28;20049;-24
2023/06/09 06:32:08;;;;;;;6.53;2.47;;;27.30;49.60;;;;;;10481999;28;20386;-26
2023/06/09 06:37:09;;;;;;;6.03;2.60;;;27.30;49.40;;;;;;10485723;28;20083;-26
2023/06/09 06:42:11;;;;;;;4.40;2.15;;;27.40;49.40;;;;;;10481117;28;20048;-26
2023/06/09 06:47:15;;;;;;;6.80;2.20;;;27.40;49.50;;;;;;10498786;28;20459;-26
2023/06/09 06:52:16;;;;;;;9.30;2.28;;;27.40;49.40;;;;;;10484246;28;20055;-26
2023/06/09 06:57:18;;;;;;;4.80;1.95;;;27.40;49.60;;;;;;10468574;28;20168;-25
2023/06/09 07:02:23;;;;;;;9.63;2.78;;;27.40;49.60;;;;;;10492702;28;20087;-27
2023/06/09 07:07:26;;;;;;;5.43;2.55;;;27.40;49.70;;;;;;10482367;28;20495;-26
2023/06/09 07:12:34;;;;;;;4.43;2.30;;;27.40;49.60;;;;;;10472857;28;20053;-25
2023/06/09 07:17:38;;;;;;;6.93;3.03;;;27.50;49.80;;;;;;10487144;28;20047;-26
2023/06/09 07:22:42;;;;;;;6.13;2.30;;;27.50;49.90;;;;;;10475552;28;20831;-26
2023/06/09 07:27:45;;;;;;;10.77;2.20;;;27.50;50.00;;;;;;10482581;28;20048;-27
2023/06/09 07:32:48;;;;;;;4.13;2.10;;;27.50;50.00;;;;;;10469083;28;20057;-27
2023/06/09 07:37:50;;;;;;;4.50;2.45;;;27.60;50.00;;;;;;10480785;28;20049;-27
2023/06/09 07:42:52;;;;;;;8.43;2.42;;;27.60;49.90;;;;;;10465482;28;20044;-27
2023/06/09 07:47:55;;;;;;;8.23;2.67;;;27.60;50.00;;;;;;10499152;28;20047;-29
2023/06/09 07:52:56;;;;;;;5.18;2.70;;;27.70;50.00;;;;;;10499692;28;20091;-27
2023/06/09 07:57:58;;;;;;;5.40;2.40;;;27.60;49.90;;;;;;10482784;28;20098;-27
2023/06/09 08:03:02;;;;;;;5.93;2.35;;;27.70;49.80;;;;;;10494443;28;20563;-28
2023/06/09 08:08:04;;;;;;;5.18;2.20;;;27.70;50.10;;;;;;10500012;28;20047;-27
2023/06/09 08:13:06;;;;;;;4.05;2.15;;;27.90;49.50;;;;;;10487373;28;20056;-27
2023/06/09 08:18:09;;;;;;;5.40;2.25;;;27.80;49.80;;;;;;10485430;28;20040;-25
2023/06/09 08:23:11;;;;;;;7.60;2.58;;;27.80;49.90;;;;;;10477038;28;20040;-27
2023/06/09 08:28:13;;;;;;;4.40;2.40;;;27.90;49.80;;;;;;10488467;28;20040;-27
2023/06/09 08:33:17;;;;;;;3.67;2.47;;;27.90;50.10;;;;;;10487175;28;20405;-27
2023/06/09 08:38:18;;;;;;;2.90;2.20;;;27.90;49.80;;;;;;10483842;28;20048;-26
2023/06/09 08:43:21;;;;;;;3.78;2.58;;;28.30;49.40;;;;;;10486900;28;20135;-27
2023/06/09 08:48:27;;;;;;;6.53;2.30;;;28.20;49.70;;;;;;10490511;28;20051;-27
2023/06/09 08:53:30;;;;;;;5.28;2.55;;;28.20;49.80;;;;;;10492717;28;20552;-27
2023/06/09 08:58:33;;;;;;;3.72;2.40;;;28.40;49.60;;;;;;10493835;28;20055;-27
2023/06/09 09:03:36;;;;;;;3.88;2.38;;;28.30;49.60;;;;;;10489850;28;20098;-25
2023/06/09 09:08:38;;;;;;;5.55;2.30;;;28.40;49.40;;;;;;10479037;28;20102;-26
2023/06/09 09:13:40;;;;;;;5.22;2.25;;;28.30;49.70;;;;;;10492257;28;20075;-27
2023/06/09 09:18:46;;;;;;;2.53;2.15;;;28.60;49.30;;;;;;10495927;28;20044;-25
2023/06/09 09:23:56;;;;;;;3.95;2.40;;;28.50;49.70;;;;;;10489701;28;20055;-27
2023/06/09 09:29:04;;;;;;;3.72;2.70;;;28.50;49.60;;;;;;10483037;28;20469;-26
2023/06/09 09:34:11;;;;;;;3.95;2.20;;;28.60;49.50;;;;;;10491366;28;20087;-27
2023/06/09 09:39:14;;;;;;;4.50;2.58;;;28.60;49.70;;;;;;10486675;28;20048;-25
2023/06/09 09:44:18;;;;;;;3.10;2.35;;;29.20;49.10;;;;;;10487229;28;20159;-26
2023/06/09 09:49:23;;;;;;;5.20;3.03;;;29.20;48.90;;;;;;10493702;28;20045;-26
2023/06/09 09:54:27;;;;;;;4.65;2.70;;;28.90;49.40;;;;;;10479396;28;20052;-26
2023/06/09 09:59:29;;;;;;;7.43;2.28;;;29.30;49.10;;;;;;10486231;28;20105;-25
2023/06/09 10:04:33;;;;;;;5.20;3.08;;;29.20;49.20;;;;;;10480296;28;20493;-26
2023/06/09 10:09:35;;;;;;;3.15;2.53;;;29.10;49.50;;;;;;10479866;28;20113;-26
2023/06/09 10:14:38;;;;;;;6.88;4.50;;;28.80;49.90;;;;;;10490621;28;20049;-26
2023/06/09 10:19:42;;;;;;;5.53;3.33;;;29.30;49.10;;;;;;10474734;28;20123;-25
2023/06/09 10:24:46;;;;;;;9.23;3.28;;;29.50;48.90;;;;;;10469055;28;20050;-26
2023/06/09 10:29:48;;;;;;;4.25;2.53;;;29.70;48.90;;;;;;10477540;28;20049;-25
2023/06/09 10:34:54;;;;;;;11.05;4.15;;;29.00;50.30;;;;;;10479073;28;20936;-25
2023/06/09 10:40:02;;;;;;;14.20;5.75;;;28.90;50.20;;;;;;10483863;28;20148;-26
2023/06/09 10:45:12;;;;;;;4.03;3.00;;;29.30;50.00;;;;;;10491154;28;20087;-26
2023/06/09 10:50:26;;;;;;;6.72;3.20;;;29.20;49.90;;;;;;10487238;28;20059;-26
2023/06/09 10:55:30;;;;;;;5.43;3.65;;;29.90;49.30;;;;;;10484500;28;20482;-26
2023/06/09 11:01:06;;;;;;;8.45;3.88;;;29.90;49.50;;;;;;10482022;28;20106;-25
2023/06/09 11:06:09;;;;;;;8.43;4.82;;;29.70;49.40;;;;;;10484233;28;20521;-26
2023/06/09 11:11:15;;;;;;;8.00;4.45;;;29.70;49.60;;;;;;10481300;28;20087;-26
2023/06/09 11:16:17;;;;;;;4.93;3.30;;;30.10;49.00;;;;;;10482424;28;20052;-26
2023/06/09 11:21:23;;;;;;;8.43;3.90;;;29.70;49.80;;;;;;10482793;28;20072;-27
2023/06/09 11:26:26;;;;;;;7.53;4.53;;;30.30;49.10;;;;;;10484562;28;20076;-26
2023/06/09 11:31:29;;;;;;;5.22;3.38;;;30.20;49.10;;;;;;10485169;28;20156;-26
2023/06/09 11:36:33;;;;;;;12.38;4.65;;;30.90;48.40;;;;;;10480148;28;20499;-27
2023/06/09 11:41:35;;;;;;;7.10;3.75;;;30.40;49.30;;;;;;10476172;28;20044;-28
2023/06/09 11:46:37;;;;;;;8.25;3.83;;;30.20;50.00;;;;;;10495574;28;20489;-26
2023/06/09 11:52:06;;;;;;;6.60;3.25;;;30.90;48.70;;;;;;10481757;28;20102;-29
2023/06/09 11:57:10;;;;;;;13.50;5.60;;;31.40;48.10;;;;;;10485946;28;20056;-26
2023/06/09 12:02:13;;;;;;;8.55;4.07;;;31.20;48.30;;;;;;10479986;28;20051;-26
2023/06/09 12:07:18;;;;;;;7.00;4.03;;;31.20;48.70;;;;;;10486188;28;20584;-26
2023/06/09 12:12:19;;;;;;;6.30;3.88;;;31.20;48.30;;;;;;10484190;28;20052;-27
2023/06/09 12:17:21;;;;;;;6.32;3.55;;;31.80;47.20;;;;;;10480371;28;20053;-26
2023/06/09 12:22:24;;;;;;;4.43;3.53;;;31.80;47.90;;;;;;10487229;28;20083;-26
2023/06/09 12:27:28;;;;;;;13.63;5.97;;;31.80;47.80;;;;;;10493208;28;20068;-26
2023/06/09 12:32:30;;;;;;;5.63;3.60;;;32.30;46.60;;;;;;10490035;28;20037;-26
2023/06/09 12:37:38;;;;;;;6.13;4.28;;;32.30;46.90;;;;;;10483115;28;20041;-26
2023/06/09 12:42:47;;;;;;;6.05;4.15;;;32.70;46.00;;;;;;10487776;28;20179;-25
2023/06/09 12:47:49;;;;;;;4.85;3.55;;;32.30;47.00;;;;;;10486394;28;20060;-25
2023/06/09 12:52:52;;;;;;;7.32;4.50;;;33.10;45.80;;;;;;10476302;28;20077;-26
2023/06/09 12:57:54;;;;;;;8.40;3.85;;;33.30;45.30;;;;;;10474301;28;20052;-26
2023/06/09 13:02:56;;;;;;;6.38;3.10;;;33.80;44.80;;;;;;10496854;28;20047;-25
2023/06/09 13:08:01;;;;;;;7.00;3.67;;;33.90;44.80;;;;;;10474024;28;20138;-27
2023/06/09 13:13:03;;;;;;;5.55;3.50;;;34.10;43.40;;;;;;10497104;28;20065;-27
2023/06/09 13:18:05;;;;;;;5.88;3.03;;;34.10;44.30;;;;;;10491142;28;20708;-26
2023/06/09 13:23:08;;;;;;;7.10;3.72;;;34.20;43.80;;;;;;10472363;28;20493;-25
2023/06/09 13:28:11;;;;;;;5.00;2.92;;;34.50;42.70;;;;;;10486771;28;20107;-26
2023/06/09 13:33:14;;;;;;;4.85;3.45;;;34.90;42.20;;;;;;10490860;28;20083;-26
2023/06/09 13:38:17;;;;;;;10.40;3.65;;;35.90;42.00;;;;;;10482662;28;20482;-27
2023/06/09 13:43:19;;;;;;;4.68;2.95;;;37.40;39.70;;;;;;10467823;28;20131;-25
2023/06/09 13:48:21;;;;;;;6.97;3.38;;;36.60;41.70;;;;;;10489820;28;20540;-26
2023/06/09 13:53:24;;;;;;;9.82;3.70;;;36.80;40.30;;;;;;10475842;28;20131;-26
2023/06/09 13:58:26;;;;;;;7.57;3.58;;;37.90;39.00;;;;;;10480908;28;20060;-25
2023/06/09 14:03:28;;;;;;;5.55;3.33;;;37.10;41.50;;;;;;10480455;28;20052;-27
2023/06/09 14:08:31;;;;;;;9.05;3.90;;;37.60;40.20;;;;;;10481864;28;20128;-25
2023/06/09 14:13:33;;;;;;;4.97;2.70;;;38.10;40.30;;;;;;10483837;28;20100;-28
2023/06/09 14:18:36;;;;;;;5.00;2.97;;;38.00;40.50;;;;;;10486792;28;20444;-26
2023/06/09 14:23:40;;;;;;;6.25;3.35;;;37.60;40.50;;;;;;10488852;28;20140;-26
2023/06/09 14:28:42;;;;;;;4.22;2.63;;;39.30;41.20;;;;;;10484423;28;20056;-27
2023/06/09 14:33:44;;;;;;;5.47;3.20;;;38.70;40.30;;;;;;10484543;28;20044;-26
2023/06/09 14:38:47;;;;;;;5.20;3.00;;;37.30;40.90;;;;;;10476964;28;20072;-26
2023/06/09 14:43:49;;;;;;;8.00;2.80;;;37.00;40.70;;;;;;10477535;28;20128;-26
2023/06/09 14:48:51;;;;;;;4.15;3.25;;;37.80;40.70;;;;;;10487317;28;20507;-25
2023/06/09 14:53:55;;;;;;;5.57;3.10;;;39.50;39.80;;;;;;10484502;28;20141;-25
2023/06/09 14:58:57;;;;;;;4.50;2.65;;;38.90;38.30;;;;;;10470489;28;20041;-25
2023/06/09 15:04:00;;;;;;;3.63;2.88;;;38.80;36.70;;;;;;10488849;28;20048;-25
2023/06/09 15:09:03;;;;;;;4.45;2.40;;;39.00;38.10;;;;;;10477688;28;20079;-26
2023/06/09 15:14:05;;;;;;;2.85;2.47;;;40.00;38.10;;;;;;10476069;28;20066;-25
2023/06/09 15:19:06;;;;;;;3.08;2.28;;;39.30;38.20;;;;;;10487292;28;20045;-24
2023/06/09 15:24:10;;;;;;;4.45;2.25;;;39.20;37.80;;;;;;10484454;28;20052;-25
2023/06/09 15:29:12;;;;;;;6.70;3.00;;;39.10;38.90;;;;;;10483451;28;20724;-23
2023/06/09 15:34:13;;;;;;;7.32;2.80;;;41.00;38.90;;;;;;10464314;28;20394;-25
2023/06/09 15:39:16;;;;;;;2.75;2.53;;;41.00;36.80;;;;;;10503092;28;20140;-26
2023/06/09 15:44:18;;;;;;;4.80;2.63;;;40.90;38.30;;;;;;10481959;28;20555;-27
2023/06/09 15:49:20;;;;;;;3.75;2.90;;;40.20;37.20;;;;;;10478993;28;20130;-25
2023/06/09 15:54:23;;;;;;;3.10;2.63;;;41.80;36.20;;;;;;10477007;28;20044;-24
2023/06/09 15:59:25;;;;;;;4.38;2.40;;;41.80;35.90;;;;;;10485015;28;20045;-26
2023/06/09 16:04:27;;;;;;;3.25;2.58;;;41.40;36.50;;;;;;10471238;28;20076;-27
2023/06/09 16:09:30;;;;;;;2.90;2.60;;;40.90;37.10;;;;;;10473078;28;20099;-25
2023/06/09 16:14:32;;;;;;;7.40;5.70;;;41.10;37.50;;;;;;10483049;28;20084;-25
2023/06/09 16:19:34;;;;;;;4.88;2.10;;;41.20;34.40;;;;;;10476850;28;20055;-28
2023/06/09 16:24:37;;;;;;;2.83;2.22;;;41.60;37.60;;;;;;10489909;28;20496;-26
2023/06/09 16:29:39;;;;;;;6.68;3.22;;;42.30;37.00;;;;;;10485137;28;20138;-26
2023/06/09 16:34:41;;;;;;;3.53;2.50;;;41.80;36.30;;;;;;10492463;28;20045;-25
2023/06/09 16:39:44;;;;;;;2.50;2.30;;;41.80;37.10;;;;;;10483807;28;20129;-25
2023/06/09 16:44:46;;;;;;;3.72;2.80;;;41.70;38.70;;;;;;10484542;28;20481;-26
2023/06/09 16:49:50;;;;;;;4.45;2.55;;;41.30;37.30;;;;;;10498280;28;20123;-27
2023/06/09 16:54:54;;;;;;;4.72;2.60;;;42.90;36.30;;;;;;10487462;28;20048;-25
2023/06/09 16:59:56;;;;;;;2.40;2.20;;;42.20;36.80;;;;;;10485864;28;20090;-26
2023/06/09 17:04:58;;;;;;;3.13;2.20;;;42.20;40.60;;;;;;10492348;28;20124;-26
2023/06/09 17:10:01;;;;;;;2.80;2.03;;;42.20;38.60;;;;;;10494375;28;20056;-27
2023/06/09 17:15:03;;;;;;;3.55;2.90;;;41.90;38.80;;;;;;10491353;28;20143;-26
2023/06/09 17:20:07;;;;;;;4.45;3.53;;;38.90;36.80;;;;;;10486879;28;20078;-28
2023/06/09 17:25:12;;;;;;;3.92;3.17;;;36.60;38.80;;;;;;10490763;28;20048;-26
2023/06/09 17:30:15;;;;;;;5.20;3.40;;;35.50;37.70;;;;;;10482926;28;20048;-26
2023/06/09 17:35:17;;;;;;;6.75;3.25;;;35.40;40.50;;;;;;10485925;28;20071;-26
2023/06/09 17:40:20;;;;;;;6.25;3.53;;;38.80;39.30;;;;;;10480776;28;20055;-27
2023/06/09 17:45:22;;;;;;;4.43;3.10;;;40.10;40.70;;;;;;10494859;28;20048;-27
2023/06/09 17:50:24;;;;;;;4.03;2.80;;;41.30;40.70;;;;;;10491890;28;20131;-27
2023/06/09 17:55:27;;;;;;;4.00;2.95;;;42.60;38.60;;;;;;10502313;28;20176;-26
2023/06/09 18:00:29;;;;;;;2.40;2.20;;;42.70;36.40;;;;;;10485265;28;20568;-25
2023/06/09 18:05:31;;;;;;;3.83;1.92;;;42.40;43.10;;;;;;10492823;28;20535;-27
2023/06/09 18:10:34;;;;;;;4.13;2.20;;;42.20;41.10;;;;;;10489677;28;20646;-26
2023/06/09 18:15:36;;;;;;;6.63;2.47;;;41.40;42.80;;;;;;10485352;28;20532;-26
2023/06/09 18:20:38;;;;;;;3.45;2.60;;;40.90;42.20;;;;;;10482462;28;20041;-25
2023/06/09 18:25:42;;;;;;;2.00;1.90;;;40.80;41.90;;;;;;10492647;28;20036;-27
2023/06/09 18:30:48;;;;;;;2.35;2.15;;;40.60;42.20;;;;;;10487763;28;20084;-29
2023/06/09 18:35:51;;;;;;;2.80;2.50;;;40.20;42.90;;;;;;10484574;28;20048;-27
2023/06/09 18:40:55;;;;;;;1.75;1.60;;;39.80;42.40;;;;;;10484992;28;20463;-27
2023/06/09 18:45:56;;;;;;;2.50;2.20;;;39.10;43.70;;;;;;10480421;28;20075;-27
2023/06/09 18:50:58;;;;;;;2.10;1.90;;;38.80;43.70;;;;;;10496204;28;20125;-27
2023/06/09 18:56:01;;;;;;;3.55;2.17;;;38.90;45.40;;;;;;10482693;28;20125;-28
2023/06/09 19:01:03;;;;;;;2.35;2.00;;;38.60;48.30;;;;;;10481895;28;20049;-28
2023/06/09 19:06:05;;;;;;;2.58;2.38;;;38.30;44.30;;;;;;10492644;28;20044;-30
2023/06/09 19:11:08;;;;;;;2.50;2.30;;;38.00;45.20;;;;;;10490474;28;20055;-27
2023/06/09 19:16:10;;;;;;;2.55;2.25;;;37.80;45.50;;;;;;10482789;28;20102;-29
2023/06/09 19:21:12;;;;;;;2.20;1.92;;;37.60;44.80;;;;;;10484104;28;20411;-27
2023/06/09 19:26:15;;;;;;;3.53;2.13;;;37.40;45.10;;;;;;10485076;28;20131;-27
2023/06/09 19:31:17;;;;;;;2.72;2.53;;;37.30;45.40;;;;;;10491004;28;20057;-28
2023/06/09 19:36:19;;;;;;;2.50;2.30;;;37.10;45.90;;;;;;10487234;28;20769;-27
2023/06/09 19:41:22;;;;;;;3.67;2.17;;;36.90;45.60;;;;;;10478357;28;20127;-27
2023/06/09 19:46:24;;;;;;;4.63;2.10;;;36.80;46.20;;;;;;10494378;28;20094;-30
2023/06/09 19:51:25;;;;;;;2.85;2.25;;;36.60;46.30;;;;;;10477438;28;20041;-28
2023/06/09 19:56:29;;;;;;;2.58;2.35;;;36.40;46.10;;;;;;10494037;28;20138;-27
2023/06/09 20:01:31;;;;;;;3.88;2.45;;;36.20;46.30;;;;;;10491781;28;20062;-26
2023/06/09 20:06:32;;;;;;;2.58;2.38;;;36.10;46.40;;;;;;10497380;28;21121;-26
2023/06/09 20:11:36;;;;;;;2.70;2.40;;;35.90;46.50;;;;;;10492003;28;20063;-28
2023/06/09 20:16:38;;;;;;;2.78;2.53;;;35.70;46.50;;;;;;10492095;28;20552;-26
2023/06/09 20:21:40;;;;;;;3.53;2.40;;;35.60;46.60;;;;;;10494457;28;20473;-27
2023/06/09 20:26:43;;;;;;;2.53;2.33;;;35.50;46.70;;;;;;10493272;28;20517;-35
2023/06/09 20:31:45;;;;;;;3.30;2.60;;;35.30;46.80;;;;;;10474428;28;20087;-27
2023/06/09 20:36:47;;;;;;;3.95;2.75;;;35.20;46.80;;;;;;10485475;28;20051;-27
2023/06/09 20:41:51;;;;;;;3.10;2.80;;;35.00;46.90;;;;;;10492640;28;20227;-27
2023/06/09 20:46:53;;;;;;;3.60;2.63;;;34.90;47.60;;;;;;10506362;28;20131;-26
2023/06/09 20:51:55;;;;;;;3.30;2.60;;;34.80;47.10;;;;;;10491659;28;20049;-29
2023/06/09 20:56:58;;;;;;;2.70;2.45;;;34.70;47.20;;;;;;10472663;28;20071;-27
2023/06/09 21:02:00;;;;;;;4.10;3.03;;;34.60;47.30;;;;;;10492966;28;20048;-27
2023/06/09 21:07:03;;;;;;;5.50;2.65;;;34.50;47.40;;;;;;10491705;28;20060;-28
2023/06/09 21:12:08;;;;;;;5.30;3.35;;;34.40;47.50;;;;;;10484200;28;20055;-29
2023/06/09 21:17:10;;;;;;;3.42;2.53;;;34.30;47.40;;;;;;10501885;28;20560;-27
2023/06/09 21:22:11;;;;;;;3.92;2.50;;;34.20;47.60;;;;;;10495837;28;20075;-28
2023/06/09 21:27:15;;;;;;;3.70;2.30;;;34.20;47.80;;;;;;10497734;28;20056;-28
2023/06/09 21:32:17;;;;;;;5.05;4.47;;;34.10;47.80;;;;;;10488864;28;20106;-27
2023/06/09 21:37:19;;;;;;;3.47;2.80;;;34.00;47.90;;;;;;10503021;28;20114;-27
2023/06/09 21:42:22;;;;;;;5.70;3.10;;;33.90;48.20;;;;;;10496368;28;20064;-28
2023/06/09 21:47:24;;;;;;;4.68;2.40;;;33.70;47.70;;;;;;10460889;28;20044;-28
2023/06/09 21:52:26;;;;;;;4.63;2.63;;;33.70;48.20;;;;;;10494445;28;20048;-28
2023/06/09 21:57:29;;;;;;;7.05;3.30;;;33.70;48.30;;;;;;10489434;28;20084;-27
2023/06/09 22:02:31;;;;;;;3.88;2.83;;;33.60;48.40;;;;;;10483775;28;20040;-30
2023/06/09 22:07:33;;;;;;;4.35;2.78;;;33.50;48.50;;;;;;10464461;28;20080;-31
2023/06/09 22:12:38;;;;;;;3.35;2.80;;;33.50;48.60;;;;;;10481479;28;20082;-28
2023/06/09 22:17:41;;;;;;;4.63;2.65;;;33.40;48.70;;;;;;10477355;28;20096;-28
2023/06/09 22:22:43;;;;;;;3.47;2.53;;;33.30;48.60;;;;;;10489087;28;20052;-28
2023/06/09 22:27:46;;;;;;;3.28;2.40;;;33.30;48.80;;;;;;10477315;28;20068;-28
2023/06/09 22:32:48;;;;;;;3.38;2.53;;;33.20;48.80;;;;;;10484267;28;20071;-28
2023/06/09 22:37:50;;;;;;;3.63;2.70;;;33.10;48.80;;;;;;10483431;28;20541;-27
2023/06/09 22:42:53;;;;;;;4.03;2.92;;;33.10;48.90;;;;;;10483982;28;20136;-28
2023/06/09 22:47:55;;;;;;;5.47;3.03;;;33.00;48.90;;;;;;10485977;28;20056;-28
2023/06/09 22:52:57;;;;;;;3.22;2.90;;;33.00;49.00;;;;;;10481260;28;20052;-27
2023/06/09 22:58:01;;;;;;;3.35;3.03;;;32.90;49.00;;;;;;10469592;28;20080;-28
2023/06/09 23:03:03;;;;;;;3.53;2.60;;;32.90;49.00;;;;;;10489372;28;20068;-29
2023/06/09 23:08:06;;;;;;;3.50;2.90;;;32.80;49.10;;;;;;10498658;28;20131;-29
2023/06/09 23:13:09;;;;;;;4.15;3.15;;;32.70;49.10;;;;;;10487504;28;20048;-26
2023/06/09 23:18:11;;;;;;;2.90;2.60;;;32.70;49.20;;;;;;10482697;28;20063;-29
2023/06/09 23:23:14;;;;;;;3.97;2.80;;;32.60;49.30;;;;;;10484211;28;20101;-28
2023/06/09 23:28:17;;;;;;;4.57;3.03;;;32.60;49.40;;;;;;10487006;28;20082;-27
2023/06/09 23:33:19;;;;;;;5.25;3.42;;;32.50;49.30;;;;;;10494748;28;20405;-27
2023/06/09 23:38:21;;;;;;;2.90;2.60;;;32.40;49.40;;;;;;10496619;28;20101;-27
2023/06/09 23:43:25;;;;;;;4.32;2.67;;;32.40;49.50;;;;;;10494445;28;20607;-30
2023/06/09 23:48:27;;;;;;;5.93;3.80;;;32.30;49.50;;;;;;10494891;28;20102;-27
2023/06/09 23:53:29;;;;;;;4.35;3.00;;;32.30;49.60;;;;;;10479676;28;20041;-29
2023/06/09 23:58:32;;;;;;;3.67;3.38;;;32.20;49.50;;;;;;10488415;28;20074;-29
